Grandin, Florida
Current Conditions -  °F | °C
As of 7:35 PM on Thursday 18 Dec 2014 (Local Time) from K42J Reporting Station
Clear Clear  
Wind Chill: 11°   Ceiling: Unl
Heat Index: 11°   Visibility: 10mi
Dew Point:   Wind: 5mph
Humidity: 88%   Direction: 310°NW
Pressure: 30.13"   Gusts: NA
Location:  29.73°N, 81.92°W
Report Text: K42J 190035Z AUTO 31004KT 10SM CLR 11/09 A3013 RMK AO1 TSNO
Loading
Personal Weather Stations






























Interactive Weather Map New forecast layout! Learn more

10-Day Weather Forecast

Advertisements
Track Severe Weather on mobile